Time;durP1;ratioP1;P1;durP2;ratioP2;P2;SDS_P1;SDS_P2;PMS_P1;PMS_P2;Temp;Humidity;BMP_temperature;BMP_pressure;BME280_temperature;BME280_humidity;BME280_pressure;Samples;Min_cycle;Max_cycle;Signal;HPM_P1;HPM_P2
2023/03/14 00:01:34;;;;;;;18.35;4.35;;;10.60;99.90;;;;;;5050243;28;20391;-66
2023/03/14 00:03:59;;;;;;;25.23;5.18;;;10.60;99.90;;;;;;5052397;28;20041;-65
2023/03/14 00:06:25;;;;;;;26.52;5.20;;;10.60;99.90;;;;;;5053797;28;20063;-66
2023/03/14 00:08:51;;;;;;;21.50;5.25;;;10.60;99.90;;;;;;5053995;28;20441;-66
2023/03/14 00:11:21;;;;;;;19.38;4.80;;;10.70;99.90;;;;;;5052034;28;20037;-65
2023/03/14 00:13:51;;;;;;;20.88;4.40;;;10.70;99.90;;;;;;5052344;28;21229;-65
2023/03/14 00:16:16;;;;;;;25.40;5.75;;;10.70;99.90;;;;;;5053839;28;20526;-66
2023/03/14 00:18:42;;;;;;;17.88;4.60;;;10.70;99.90;;;;;;5058982;28;20041;-65
2023/03/14 00:21:09;;;;;;;19.77;4.90;;;10.80;99.90;;;;;;5052140;28;20039;-65
2023/03/14 00:23:36;;;;;;;21.10;4.88;;;10.80;99.90;;;;;;5049711;28;20471;-63
2023/03/14 00:26:23;;;;;;;17.15;4.63;;;10.80;99.90;;;;;;5052033;28;20060;-67
2023/03/14 00:28:53;;;;;;;18.40;5.22;;;10.80;99.90;;;;;;5051525;28;20045;-66
2023/03/14 00:31:19;;;;;;;14.52;4.43;;;10.80;99.90;;;;;;5052905;28;20567;-66
2023/03/14 00:33:45;;;;;;;15.43;4.50;;;10.80;99.90;;;;;;5050843;28;20033;-66
2023/03/14 00:36:13;;;;;;;16.52;4.45;;;10.70;99.90;;;;;;5053975;28;20036;-66
2023/03/14 00:38:41;;;;;;;14.25;4.15;;;10.70;99.90;;;;;;5051195;28;20495;-65
2023/03/14 00:41:08;;;;;;;12.48;4.22;;;10.70;99.90;;;;;;5044475;28;20029;-65
2023/03/14 00:43:34;;;;;;;20.98;5.43;;;10.60;99.90;;;;;;5050237;28;20040;-68
2023/03/14 00:46:00;;;;;;;19.23;5.45;;;10.60;99.90;;;;;;5052602;28;20052;-66
2023/03/14 00:48:26;;;;;;;17.58;5.63;;;10.60;99.90;;;;;;5051150;28;20075;-66
2023/03/14 00:50:52;;;;;;;17.55;5.00;;;10.50;99.90;;;;;;5052315;28;20033;-66
2023/03/14 00:53:18;;;;;;;19.13;5.95;;;10.50;99.90;;;;;;5048713;28;20036;-67
2023/03/14 00:55:44;;;;;;;14.27;4.68;;;10.50;99.90;;;;;;5053677;28;20032;-67
2023/03/14 00:58:11;;;;;;;11.80;5.25;;;10.50;99.90;;;;;;5052203;28;20037;-67
2023/03/14 01:00:37;;;;;;;14.38;4.68;;;10.50;99.90;;;;;;5052300;28;20451;-68
2023/03/14 01:03:04;;;;;;;17.55;5.25;;;10.40;99.90;;;;;;5048611;28;20398;-68
2023/03/14 01:05:30;;;;;;;19.83;5.97;;;10.40;99.90;;;;;;5051617;28;20426;-68
2023/03/14 01:07:56;;;;;;;13.60;5.32;;;10.40;99.90;;;;;;5051165;28;20041;-67
2023/03/14 01:10:21;;;;;;;17.00;5.50;;;10.40;99.90;;;;;;5053298;28;20064;-67
2023/03/14 01:12:47;;;;;;;12.90;4.25;;;10.40;99.90;;;;;;5050386;28;20041;-67
2023/03/14 01:15:13;;;;;;;10.48;3.17;;;10.40;99.90;;;;;;5047760;28;20044;-67
2023/03/14 01:17:39;;;;;;;12.18;4.38;;;10.40;99.90;;;;;;5049515;28;20095;-66
2023/03/14 01:20:08;;;;;;;17.58;3.92;;;10.30;99.90;;;;;;5047441;28;20037;-66
2023/03/14 01:22:39;;;;;;;16.08;4.03;;;10.30;99.90;;;;;;5049264;28;20040;-66
2023/03/14 01:25:06;;;;;;;17.90;3.78;;;10.30;99.90;;;;;;5044507;28;20489;-66
2023/03/14 01:27:32;;;;;;;14.48;4.22;;;10.30;99.90;;;;;;5049701;28;20037;-65
2023/03/14 01:29:58;;;;;;;11.95;3.53;;;10.20;99.90;;;;;;5049405;28;20136;-65
2023/03/14 01:32:25;;;;;;;14.63;4.03;;;10.20;99.90;;;;;;5046435;28;20094;-65
2023/03/14 01:34:51;;;;;;;16.75;4.32;;;10.10;99.90;;;;;;5036482;28;20573;-65
2023/03/14 01:37:16;;;;;;;12.52;4.00;;;10.10;99.90;;;;;;5048971;28;20124;-65
2023/03/14 01:39:42;;;;;;;13.38;3.55;;;10.00;99.90;;;;;;5049167;28;20045;-65
2023/03/14 01:42:07;;;;;;;14.43;4.30;;;10.00;99.90;;;;;;5045363;28;20064;-65
2023/03/14 01:44:53;;;;;;;17.55;4.55;;;9.90;99.90;;;;;;5049813;28;20086;-65
2023/03/14 01:47:19;;;;;;;16.00;4.32;;;9.90;99.90;;;;;;5050092;28;20041;-65
2023/03/14 01:49:48;;;;;;;16.38;4.35;;;9.90;99.90;;;;;;5049389;28;20047;-65
2023/03/14 01:52:31;;;;;;;18.50;4.65;;;9.90;99.90;;;;;;5049650;28;20033;-65
2023/03/14 01:55:03;;;;;;;20.10;4.95;;;9.90;99.90;;;;;;5049489;28;20525;-65
2023/03/14 01:57:35;;;;;;;14.88;4.90;;;9.90;99.90;;;;;;5050843;28;20048;-65
2023/03/14 02:00:14;;;;;;;19.98;4.70;;;9.90;99.90;;;;;;5050752;28;20116;-65
2023/03/14 02:02:43;;;;;;;17.15;4.95;;;9.90;99.90;;;;;;5050115;28;20029;-65
2023/03/14 02:05:11;;;;;;;17.23;5.00;;;9.90;99.90;;;;;;5043421;28;20037;-66
2023/03/14 02:07:49;;;;;;;19.63;4.35;;;10.00;99.90;;;;;;5051327;28;20033;-65
2023/03/14 02:10:18;;;;;;;14.07;4.25;;;10.00;99.90;;;;;;5050099;28;20398;-65
2023/03/14 02:12:45;;;;;;;19.42;4.57;;;10.00;99.90;;;;;;5047486;28;20041;-66
2023/03/14 02:15:10;;;;;;;18.02;4.47;;;10.00;99.90;;;;;;5049040;28;20033;-65
2023/03/14 02:17:36;;;;;;;19.52;4.93;;;10.10;99.90;;;;;;5050386;28;20037;-66
2023/03/14 02:20:19;;;;;;;12.55;5.05;;;10.10;99.90;;;;;;5049230;28;20033;-65
2023/03/14 02:22:46;;;;;;;13.80;3.83;;;10.10;99.90;;;;;;5050250;28;20037;-65
2023/03/14 02:25:23;;;;;;;16.02;4.32;;;10.10;99.90;;;;;;5050380;28;20056;-65
2023/03/14 02:27:49;;;;;;;16.67;4.18;;;10.10;99.90;;;;;;5048204;28;20457;-66
2023/03/14 02:30:22;;;;;;;14.32;4.10;;;10.10;99.90;;;;;;5050425;28;20065;-66
2023/03/14 02:32:52;;;;;;;14.30;4.15;;;10.10;99.90;;;;;;5047877;28;20491;-66
2023/03/14 02:35:22;;;;;;;10.30;3.80;;;10.10;99.90;;;;;;5047866;28;20041;-66
2023/03/14 02:38:00;;;;;;;19.75;3.80;;;10.10;99.90;;;;;;5050316;28;20041;-66
2023/03/14 02:40:26;;;;;;;12.05;3.70;;;10.10;99.90;;;;;;5050566;28;20120;-66
2023/03/14 02:42:51;;;;;;;8.68;3.42;;;10.00;99.90;;;;;;5047921;28;20490;-66
2023/03/14 02:45:17;;;;;;;9.80;3.15;;;10.10;99.90;;;;;;5050681;28;20043;-65
2023/03/14 02:47:54;;;;;;;6.53;2.90;;;10.10;99.90;;;;;;5048900;28;21895;-65
2023/03/14 02:50:24;;;;;;;9.75;2.83;;;10.10;99.90;;;;;;5022652;28;20033;-65
2023/03/14 02:52:49;;;;;;;11.30;3.08;;;10.10;99.90;;;;;;5047802;28;20124;-65
2023/03/14 02:55:19;;;;;;;14.15;3.15;;;10.10;99.90;;;;;;5049306;28;20124;-65
2023/03/14 02:57:45;;;;;;;7.75;2.22;;;10.00;99.90;;;;;;5049106;28;20116;-65
2023/03/14 03:00:11;;;;;;;6.75;2.40;;;10.00;99.90;;;;;;5049193;28;20549;-65
2023/03/14 03:02:36;;;;;;;7.13;2.20;;;10.10;99.90;;;;;;5046956;28;20040;-65
2023/03/14 03:05:02;;;;;;;9.70;2.55;;;10.00;99.90;;;;;;5049563;28;20025;-65
2023/03/14 03:07:27;;;;;;;7.93;2.47;;;10.00;99.90;;;;;;5044976;28;20161;-65
2023/03/14 03:09:53;;;;;;;8.63;2.65;;;10.00;99.90;;;;;;5045530;28;20043;-65
2023/03/14 03:12:18;;;;;;;9.32;3.20;;;9.90;99.90;;;;;;5049682;28;20037;-64
2023/03/14 03:14:44;;;;;;;7.90;2.50;;;9.90;99.90;;;;;;5049962;28;20048;-65
2023/03/14 03:17:10;;;;;;;10.90;2.92;;;9.80;99.90;;;;;;5050395;28;20044;-64
2023/03/14 03:19:35;;;;;;;10.15;2.67;;;9.80;99.90;;;;;;5051349;28;20122;-65
2023/03/14 03:22:01;;;;;;;7.38;3.05;;;9.80;99.90;;;;;;5048031;28;20099;-65
2023/03/14 03:24:27;;;;;;;6.30;2.60;;;9.80;99.90;;;;;;5049094;28;20100;-65
2023/03/14 03:26:53;;;;;;;8.57;2.45;;;9.70;99.90;;;;;;5052823;28;20044;-65
2023/03/14 03:29:19;;;;;;;8.35;2.78;;;9.70;99.90;;;;;;5052968;28;20045;-65
2023/03/14 03:31:47;;;;;;;11.05;3.13;;;9.70;99.90;;;;;;5054888;28;20065;-65
2023/03/14 03:34:13;;;;;;;10.25;2.47;;;9.70;99.90;;;;;;5052888;28;20043;-65
2023/03/14 03:36:40;;;;;;;7.38;2.63;;;9.70;99.90;;;;;;5053201;28;20036;-64
2023/03/14 03:39:05;;;;;;;8.63;2.97;;;9.70;99.90;;;;;;5052893;28;20116;-65
2023/03/14 03:41:31;;;;;;;11.40;3.78;;;9.70;99.90;;;;;;5054412;28;20060;-65
2023/03/14 03:43:56;;;;;;;13.02;3.30;;;9.70;99.90;;;;;;5053754;28;20120;-65
2023/03/14 03:46:23;;;;;;;11.00;3.30;;;9.70;99.90;;;;;;5053938;28;20035;-65
2023/03/14 03:48:48;;;;;;;9.63;3.10;;;9.70;99.90;;;;;;5049246;28;20136;-65
2023/03/14 03:51:15;;;;;;;12.38;4.00;;;9.70;99.90;;;;;;5053717;28;20128;-65
2023/03/14 03:53:42;;;;;;;11.20;3.20;;;9.60;99.90;;;;;;5048872;28;20041;-65
2023/03/14 03:56:08;;;;;;;17.58;3.60;;;9.60;99.90;;;;;;5051353;28;20037;-65
2023/03/14 03:58:34;;;;;;;9.90;3.30;;;9.60;99.90;;;;;;5052524;28;20028;-65
2023/03/14 04:01:00;;;;;;;11.68;3.00;;;9.70;99.90;;;;;;5054452;28;20122;-65
2023/03/14 04:03:26;;;;;;;11.70;2.92;;;9.60;99.90;;;;;;5050391;28;20067;-65
2023/03/14 04:06:02;;;;;;;11.02;3.00;;;9.70;99.90;;;;;;5053125;28;20087;-65
2023/03/14 04:08:28;;;;;;;9.20;2.75;;;9.60;99.90;;;;;;5052585;28;20104;-65
2023/03/14 04:10:56;;;;;;;10.52;2.97;;;9.60;99.90;;;;;;5053069;28;20074;-65
2023/03/14 04:13:22;;;;;;;10.38;2.90;;;9.70;99.90;;;;;;5053089;28;20083;-65
2023/03/14 04:15:47;;;;;;;11.18;3.00;;;9.60;99.90;;;;;;5052176;28;20080;-65
2023/03/14 04:18:13;;;;;;;8.77;3.28;;;9.70;99.90;;;;;;5049073;28;20068;-65
2023/03/14 04:20:38;;;;;;;10.02;3.15;;;9.60;99.90;;;;;;5053620;28;20040;-65
2023/03/14 04:23:04;;;;;;;10.18;3.00;;;9.60;99.90;;;;;;5050220;28;20037;-65
2023/03/14 04:25:29;;;;;;;4.53;2.58;;;9.60;99.90;;;;;;5052362;28;20044;-65
2023/03/14 04:27:55;;;;;;;9.95;2.58;;;9.60;99.90;;;;;;5051022;28;20406;-65
2023/03/14 04:30:21;;;;;;;11.27;3.15;;;9.60;99.90;;;;;;5052597;28;20383;-66
2023/03/14 04:32:47;;;;;;;11.60;3.25;;;9.60;99.90;;;;;;5050337;28;20076;-65
2023/03/14 04:35:12;;;;;;;8.70;3.05;;;9.50;99.90;;;;;;5051746;28;20064;-65
2023/03/14 04:37:38;;;;;;;10.38;3.33;;;9.50;99.90;;;;;;5051664;28;20033;-65
2023/03/14 04:40:06;;;;;;;8.82;3.17;;;9.50;99.90;;;;;;5053172;28;20033;-66
2023/03/14 04:42:32;;;;;;;12.32;3.20;;;9.50;99.90;;;;;;5049693;28;20150;-67
2023/03/14 04:44:57;;;;;;;8.85;3.20;;;9.50;99.90;;;;;;5051163;28;20482;-66
2023/03/14 04:47:23;;;;;;;10.45;4.05;;;9.50;99.90;;;;;;5052646;28;20032;-66
2023/03/14 04:49:48;;;;;;;12.15;4.13;;;9.50;99.90;;;;;;5065448;22;20045;-63
2023/03/14 04:52:14;;;;;;;8.85;3.28;;;9.50;99.90;;;;;;5050740;28;20409;-62
2023/03/14 04:54:39;;;;;;;9.80;4.15;;;9.50;99.90;;;;;;5055157;28;20042;-62
2023/03/14 04:57:05;;;;;;;9.35;3.38;;;9.50;99.90;;;;;;5034633;28;20033;-62
2023/03/14 04:59:31;;;;;;;11.63;4.30;;;9.50;99.90;;;;;;5054631;28;20051;-62
2023/03/14 05:01:56;;;;;;;11.90;4.05;;;9.50;99.90;;;;;;5045313;28;20470;-62
2023/03/14 05:04:22;;;;;;;8.75;4.32;;;9.50;99.90;;;;;;5047220;28;20045;-62
2023/03/14 05:06:47;;;;;;;6.82;3.67;;;9.50;99.90;;;;;;5051837;28;20116;-62
2023/03/14 05:09:13;;;;;;;10.25;4.18;;;9.50;99.90;;;;;;5050538;28;20111;-62
2023/03/14 05:11:38;;;;;;;6.13;3.30;;;9.50;99.90;;;;;;5050557;28;20037;-62
2023/03/14 05:14:04;;;;;;;8.95;4.03;;;9.50;99.90;;;;;;5049322;28;20090;-62
2023/03/14 05:16:29;;;;;;;8.73;3.63;;;9.50;99.90;;;;;;5051367;28;20106;-62
2023/03/14 05:18:55;;;;;;;10.88;3.72;;;9.40;99.90;;;;;;5053116;28;20037;-62
2023/03/14 05:21:20;;;;;;;11.48;3.70;;;9.40;99.90;;;;;;5051499;28;20045;-62
2023/03/14 05:23:46;;;;;;;6.70;3.15;;;9.40;99.90;;;;;;5050443;28;20430;-62
2023/03/14 05:26:11;;;;;;;9.35;3.75;;;9.40;99.90;;;;;;5047508;28;20492;-62
2023/03/14 05:28:37;;;;;;;9.80;3.90;;;9.40;99.90;;;;;;5048501;28;20029;-62
2023/03/14 05:31:07;;;;;;;14.18;3.55;;;9.40;99.90;;;;;;5049283;28;20041;-62
2023/03/14 05:33:32;;;;;;;8.85;3.72;;;9.40;99.90;;;;;;5050646;28;20047;-62
2023/03/14 05:35:58;;;;;;;8.35;3.75;;;9.40;99.90;;;;;;5033286;28;20471;-63
2023/03/14 05:38:24;;;;;;;11.52;3.40;;;9.40;99.90;;;;;;5050524;28;20033;-63
2023/03/14 05:40:49;;;;;;;14.35;3.95;;;9.40;99.90;;;;;;5052135;28;20112;-62
2023/03/14 05:43:15;;;;;;;10.68;3.15;;;9.40;99.90;;;;;;5032560;28;20033;-62
2023/03/14 05:45:42;;;;;;;9.82;3.50;;;9.30;99.90;;;;;;5048355;28;20041;-62
2023/03/14 05:48:07;;;;;;;12.73;3.22;;;9.30;99.90;;;;;;5031404;28;20060;-62
2023/03/14 05:50:33;;;;;;;11.95;3.80;;;9.40;99.90;;;;;;5048486;28;20075;-62
2023/03/14 05:52:58;;;;;;;9.93;3.17;;;9.30;99.90;;;;;;5050583;28;20044;-62
2023/03/14 05:55:24;;;;;;;11.35;3.28;;;9.30;99.90;;;;;;5050201;28;20052;-62
2023/03/14 05:57:50;;;;;;;10.90;3.38;;;9.30;99.90;;;;;;5050952;28;20043;-63
2023/03/14 06:00:16;;;;;;;12.25;3.00;;;9.30;99.90;;;;;;5032729;28;20033;-62
2023/03/14 06:02:42;;;;;;;9.05;3.15;;;9.30;99.90;;;;;;5050033;28;20040;-63
2023/03/14 06:05:07;;;;;;;10.23;3.05;;;9.40;99.90;;;;;;5050305;28;20041;-62
2023/03/14 06:07:33;;;;;;;9.07;2.72;;;9.40;99.90;;;;;;5031820;28;20055;-62
2023/03/14 06:09:59;;;;;;;10.63;3.25;;;9.40;99.90;;;;;;5051836;28;20043;-63
2023/03/14 06:12:24;;;;;;;13.68;3.85;;;9.40;99.90;;;;;;5033405;28;20079;-63
2023/03/14 06:14:50;;;;;;;12.15;3.20;;;9.40;99.90;;;;;;5047899;28;20034;-63
2023/03/14 06:17:16;;;;;;;13.48;3.33;;;9.40;99.90;;;;;;5050298;28;20040;-63
2023/03/14 06:19:41;;;;;;;11.07;3.38;;;9.30;99.90;;;;;;5051808;28;20041;-63
2023/03/14 06:22:07;;;;;;;10.85;3.13;;;9.40;99.90;;;;;;5051253;28;20035;-63
2023/03/14 06:24:32;;;;;;;10.95;2.80;;;9.40;99.90;;;;;;5048009;28;20041;-64
2023/03/14 06:26:58;;;;;;;10.18;2.92;;;9.40;99.90;;;;;;5033734;28;20037;-63
2023/03/14 06:29:23;;;;;;;13.35;4.05;;;9.40;99.90;;;;;;5031438;28;20557;-63
2023/03/14 06:31:49;;;;;;;13.63;3.40;;;9.40;99.90;;;;;;5051629;28;20517;-63
2023/03/14 06:34:15;;;;;;;11.73;3.60;;;9.40;99.90;;;;;;5049828;28;20479;-62
2023/03/14 06:36:40;;;;;;;14.00;3.95;;;9.40;99.90;;;;;;5033340;28;20037;-63
2023/03/14 06:39:06;;;;;;;13.27;3.47;;;9.40;99.90;;;;;;5044044;28;20517;-62
2023/03/14 06:41:32;;;;;;;17.88;4.25;;;9.40;99.90;;;;;;5049311;28;20025;-62
2023/03/14 06:43:58;;;;;;;11.68;4.38;;;9.40;99.90;;;;;;5048078;28;20043;-63
2023/03/14 06:46:23;;;;;;;11.57;4.22;;;9.40;99.90;;;;;;5050485;28;20116;-63
2023/03/14 06:48:49;;;;;;;8.95;3.63;;;9.40;99.90;;;;;;5029675;28;20033;-63
2023/03/14 06:51:15;;;;;;;10.40;3.92;;;9.50;99.90;;;;;;5031904;28;20039;-63
2023/03/14 06:53:40;;;;;;;12.98;3.47;;;9.40;99.90;;;;;;5045385;28;20511;-62
2023/03/14 06:56:06;;;;;;;7.55;2.75;;;9.40;99.90;;;;;;5051520;28;20130;-62
2023/03/14 06:58:32;;;;;;;7.82;3.20;;;9.50;99.90;;;;;;5052349;28;20086;-63
2023/03/14 07:00:58;;;;;;;8.63;2.92;;;9.40;99.90;;;;;;5035565;28;20041;-63
2023/03/14 07:03:24;;;;;;;8.45;3.05;;;9.40;99.90;;;;;;5052200;28;20029;-63
2023/03/14 07:05:49;;;;;;;9.88;3.70;;;9.50;99.90;;;;;;5038283;28;20102;-63
2023/03/14 07:08:15;;;;;;;10.73;3.55;;;9.50;99.90;;;;;;5054047;28;20039;-63
2023/03/14 07:10:41;;;;;;;9.68;3.92;;;9.50;99.90;;;;;;5051999;28;20033;-63
2023/03/14 07:13:06;;;;;;;9.95;3.65;;;9.50;99.90;;;;;;5049873;28;20041;-62
2023/03/14 07:15:32;;;;;;;11.88;4.07;;;9.50;99.90;;;;;;5051920;28;20279;-62
2023/03/14 07:17:57;;;;;;;10.63;4.47;;;9.50;99.90;;;;;;5053828;28;20037;-62
2023/03/14 07:20:23;;;;;;;10.60;4.35;;;9.40;99.90;;;;;;5052895;28;20045;-62
2023/03/14 07:22:49;;;;;;;12.15;4.15;;;9.50;99.90;;;;;;5048954;28;20116;-63
2023/03/14 07:25:15;;;;;;;11.50;3.90;;;9.50;99.90;;;;;;5036616;28;20045;-62
2023/03/14 07:27:44;;;;;;;13.20;4.25;;;9.50;99.90;;;;;;5033986;28;20090;-63
2023/03/14 07:30:10;;;;;;;12.38;4.13;;;9.50;99.90;;;;;;5034553;28;20041;-63
2023/03/14 07:32:36;;;;;;;6.70;2.45;;;9.50;99.90;;;;;;5034878;28;20037;-63
2023/03/14 07:35:02;;;;;;;4.40;1.60;;;9.40;99.90;;;;;;5054404;28;20398;-63
2023/03/14 07:37:27;;;;;;;2.50;1.38;;;9.30;99.90;;;;;;5049478;28;20044;-63
2023/03/14 07:39:53;;;;;;;4.60;1.40;;;9.30;99.90;;;;;;5051458;28;20037;-63
2023/03/14 07:42:18;;;;;;;2.38;1.20;;;9.20;99.90;;;;;;5052031;28;20059;-63
2023/03/14 07:44:44;;;;;;;3.78;1.40;;;9.20;99.90;;;;;;5053553;28;20029;-63
2023/03/14 07:47:10;;;;;;;2.83;1.33;;;9.10;99.90;;;;;;5049223;28;20071;-63
2023/03/14 07:49:35;;;;;;;4.32;1.40;;;9.00;99.90;;;;;;5031807;28;20072;-63
2023/03/14 07:52:01;;;;;;;4.18;0.73;;;9.00;99.90;;;;;;5047340;28;20067;-63
2023/03/14 07:54:26;;;;;;;3.03;0.50;;;8.70;99.90;;;;;;5052004;28;20032;-63
2023/03/14 07:56:52;;;;;;;3.42;0.63;;;8.40;99.90;;;;;;5046620;28;20502;-63
2023/03/14 07:59:18;;;;;;;2.80;0.65;;;8.10;99.90;;;;;;5035248;28;20041;-63
2023/03/14 08:01:44;;;;;;;2.17;0.68;;;7.90;99.90;;;;;;5053099;28;20668;-63
2023/03/14 08:04:10;;;;;;;1.50;0.82;;;7.70;99.90;;;;;;5053116;28;20039;-63
2023/03/14 08:06:36;;;;;;;4.15;0.70;;;7.50;99.90;;;;;;5051640;28;20405;-63
2023/03/14 08:09:03;;;;;;;3.15;0.85;;;7.30;99.90;;;;;;5048938;28;20367;-63
2023/03/14 08:11:28;;;;;;;7.97;0.88;;;7.20;99.90;;;;;;5052020;28;20052;-63
2023/03/14 08:13:54;;;;;;;4.28;0.80;;;7.00;99.90;;;;;;5049197;28;20135;-63
2023/03/14 08:16:20;;;;;;;3.20;0.60;;;6.90;99.90;;;;;;5032820;28;20037;-63
2023/03/14 08:18:46;;;;;;;4.03;0.70;;;6.80;99.90;;;;;;5050786;28;20034;-63
2023/03/14 08:21:12;;;;;;;3.55;0.73;;;6.70;99.90;;;;;;5049060;28;20556;-63
2023/03/14 08:23:37;;;;;;;3.08;0.70;;;6.60;99.90;;;;;;5053555;28;20033;-63
2023/03/14 08:26:03;;;;;;;2.63;0.50;;;6.50;99.90;;;;;;5052354;28;20063;-62
2023/03/14 08:28:30;;;;;;;1.77;0.70;;;6.30;99.90;;;;;;5052807;28;20025;-63
2023/03/14 08:30:56;;;;;;;3.45;0.50;;;6.20;99.90;;;;;;5044319;28;20052;-63
2023/03/14 08:33:23;;;;;;;0.65;0.50;;;6.20;99.90;;;;;;5052202;28;20033;-62
2023/03/14 08:35:51;;;;;;;0.93;0.40;;;6.00;99.90;;;;;;5047065;28;20045;-63
2023/03/14 08:38:16;;;;;;;1.17;0.32;;;5.90;99.90;;;;;;5048343;28;20076;-63
2023/03/14 08:40:42;;;;;;;0.55;0.35;;;5.80;99.90;;;;;;5049018;28;20467;-62
2023/03/14 08:43:07;;;;;;;1.27;0.50;;;5.70;99.90;;;;;;5051730;28;20095;-63
2023/03/14 08:45:33;;;;;;;1.92;0.30;;;5.60;99.90;;;;;;5052562;28;20528;-62
2023/03/14 08:47:58;;;;;;;1.33;0.40;;;5.60;99.90;;;;;;5051649;28;20532;-62
2023/03/14 08:50:24;;;;;;;3.20;0.40;;;5.60;99.90;;;;;;5047721;28;20041;-63
2023/03/14 08:52:50;;;;;;;1.23;0.40;;;5.60;99.90;;;;;;5033571;28;20048;-62
2023/03/14 08:55:16;;;;;;;2.10;0.40;;;5.50;99.90;;;;;;5052325;28;20035;-62
2023/03/14 08:57:41;;;;;;;1.65;0.40;;;5.50;99.90;;;;;;5049695;28;20090;-63
2023/03/14 09:00:14;;;;;;;0.82;0.50;;;5.50;99.90;;;;;;5052081;28;20528;-63
2023/03/14 09:02:39;;;;;;;2.95;0.70;;;5.50;99.90;;;;;;5033622;28;20119;-63
2023/03/14 09:05:06;;;;;;;1.20;0.50;;;5.50;99.90;;;;;;5034637;28;20124;-63
2023/03/14 09:07:32;;;;;;;1.67;0.70;;;5.50;99.90;;;;;;5031387;28;20044;-62
2023/03/14 09:09:57;;;;;;;2.15;0.85;;;5.60;99.90;;;;;;5029897;28;20032;-63
2023/03/14 09:12:23;;;;;;;1.33;0.60;;;5.60;99.90;;;;;;5030843;28;20037;-63
2023/03/14 09:14:48;;;;;;;4.63;0.65;;;5.60;99.90;;;;;;5032440;28;20045;-63
2023/03/14 09:17:14;;;;;;;1.08;0.60;;;5.60;99.90;;;;;;5049622;28;20417;-63
2023/03/14 09:19:39;;;;;;;1.02;0.70;;;5.70;99.90;;;;;;5048573;28;20200;-62
2023/03/14 09:22:05;;;;;;;2.70;0.68;;;5.70;99.90;;;;;;5046357;28;20036;-63
2023/03/14 09:24:31;;;;;;;2.65;0.90;;;5.70;99.90;;;;;;5050437;28;20512;-63
2023/03/14 09:26:57;;;;;;;1.80;0.70;;;5.80;99.90;;;;;;5049288;28;20036;-63
2023/03/14 09:29:22;;;;;;;6.30;1.10;;;5.80;99.90;;;;;;5043948;28;20055;-63
2023/03/14 09:31:48;;;;;;;4.82;1.08;;;5.90;99.90;;;;;;5047714;28;20059;-63
2023/03/14 09:34:13;;;;;;;2.65;0.82;;;5.90;99.90;;;;;;5049778;28;20048;-63
2023/03/14 09:36:39;;;;;;;2.97;0.82;;;5.90;99.90;;;;;;5049281;28;20033;-63
2023/03/14 09:39:05;;;;;;;4.75;0.80;;;6.00;99.90;;;;;;5049967;28;20037;-63
2023/03/14 09:41:38;;;;;;;4.72;0.80;;;6.10;99.90;;;;;;5048760;28;20033;-63
2023/03/14 09:44:19;;;;;;;5.93;1.13;;;6.10;99.90;;;;;;5050395;28;20028;-63
2023/03/14 09:46:49;;;;;;;4.80;0.98;;;6.30;99.90;;;;;;5045645;28;20033;-63
2023/03/14 09:49:37;;;;;;;5.90;1.27;;;6.40;99.90;;;;;;5052475;28;20036;-62
2023/03/14 09:52:15;;;;;;;8.02;1.45;;;6.50;99.90;;;;;;5045864;28;20397;-63
2023/03/14 09:54:47;;;;;;;11.02;1.23;;;6.60;99.90;;;;;;5041419;28;20025;-63
2023/03/14 09:57:16;;;;;;;9.30;1.60;;;6.70;99.90;;;;;;5049857;28;20509;-62
2023/03/14 09:59:44;;;;;;;9.23;1.67;;;6.80;99.90;;;;;;5045408;28;20394;-63
2023/03/14 10:02:21;;;;;;;9.73;1.90;;;6.80;99.90;;;;;;5047535;28;20094;-63
2023/03/14 10:04:49;;;;;;;7.22;1.88;;;6.80;99.90;;;;;;5050756;28;20029;-63
2023/03/14 10:07:19;;;;;;;11.32;1.83;;;6.90;99.90;;;;;;5033811;28;20035;-63
2023/03/14 10:09:47;;;;;;;9.68;2.05;;;6.90;99.90;;;;;;5051405;28;20037;-63
2023/03/14 10:12:13;;;;;;;11.68;1.85;;;7.00;99.90;;;;;;5044900;28;20033;-63
2023/03/14 10:14:50;;;;;;;15.38;1.85;;;7.00;99.90;;;;;;5051095;28;20115;-63
2023/03/14 10:17:17;;;;;;;15.18;2.60;;;7.00;99.90;;;;;;5052127;28;20041;-63
2023/03/14 10:19:59;;;;;;;13.63;2.38;;;6.90;99.90;;;;;;5050324;28;20045;-63
2023/03/14 10:22:30;;;;;;;11.85;2.38;;;6.90;99.90;;;;;;5049504;28;20482;-63
2023/03/14 10:25:00;;;;;;;14.35;2.65;;;6.80;99.90;;;;;;5050213;28;20383;-63
2023/03/14 10:27:35;;;;;;;13.35;2.45;;;6.60;99.90;;;;;;5049712;28;20040;-63
2023/03/14 10:30:07;;;;;;;10.35;1.73;;;6.60;99.90;;;;;;5051528;28;20119;-63
2023/03/14 10:32:40;;;;;;;15.55;2.30;;;6.50;99.90;;;;;;5049273;28;20101;-62
2023/03/14 10:35:20;;;;;;;13.38;2.45;;;6.40;99.90;;;;;;5044157;28;20037;-62
2023/03/14 10:38:00;;;;;;;15.77;2.38;;;6.20;99.90;;;;;;5050129;28;20083;-62
2023/03/14 10:40:32;;;;;;;17.67;2.65;;;6.20;99.90;;;;;;5033837;28;20034;-63
2023/03/14 10:43:00;;;;;;;15.63;2.88;;;6.40;99.90;;;;;;5045955;28;20504;-63
2023/03/14 10:45:31;;;;;;;8.07;1.98;;;6.50;99.90;;;;;;5045349;28;20071;-63
2023/03/14 10:48:17;;;;;;;17.08;3.08;;;6.60;99.90;;;;;;5049599;28;20041;-63
2023/03/14 10:50:59;;;;;;;16.70;2.72;;;6.70;99.90;;;;;;5046665;28;20045;-63
2023/03/14 10:53:25;;;;;;;12.52;2.58;;;6.70;99.90;;;;;;5068838;22;20062;-64
2023/03/14 10:55:51;;;;;;;15.00;2.72;;;6.70;99.90;;;;;;5086836;28;20412;-64
2023/03/14 10:58:29;;;;;;;19.13;3.45;;;6.70;99.90;;;;;;5091241;28;20051;-65
2023/03/14 11:01:20;;;;;;;14.82;2.95;;;6.70;99.90;;;;;;5091023;28;20247;-64
2023/03/14 11:03:59;;;;;;;13.83;2.53;;;6.70;99.90;;;;;;5068875;28;20040;-64
2023/03/14 11:07:14;;;;;;;13.63;2.80;;;6.70;99.90;;;;;;5068688;28;20370;-65
2023/03/14 11:09:57;;;;;;;19.45;3.13;;;6.80;99.90;;;;;;5066843;28;20048;-65
2023/03/14 11:12:45;;;;;;;18.30;2.90;;;6.80;99.90;;;;;;5061182;28;20520;-65
2023/03/14 11:15:34;;;;;;;16.70;2.50;;;6.80;99.90;;;;;;5062263;28;20058;-65
2023/03/14 11:18:19;;;;;;;14.30;2.90;;;6.90;99.90;;;;;;5065130;28;20032;-65
2023/03/14 11:21:01;;;;;;;8.93;2.47;;;7.00;99.90;;;;;;5063395;28;20102;-65
2023/03/14 11:24:04;;;;;;;13.27;2.50;;;7.00;99.90;;;;;;5062087;28;20104;-65
2023/03/14 11:27:05;;;;;;;9.70;1.42;;;7.00;99.90;;;;;;5064971;28;20401;-64
2023/03/14 11:30:01;;;;;;;13.07;2.35;;;6.90;99.90;;;;;;5055695;28;20052;-64
2023/03/14 11:32:44;;;;;;;10.10;1.83;;;7.00;99.90;;;;;;5062725;28;20106;-64
2023/03/14 11:35:29;;;;;;;11.70;2.45;;;7.10;99.90;;;;;;5067806;28;20040;-65
2023/03/14 11:38:32;;;;;;;12.00;2.05;;;7.20;99.90;;;;;;5067901;28;20044;-64
2023/03/14 11:40:58;;;;;;;17.63;2.38;;;7.20;99.90;;;;;;5070238;28;20111;-64
2023/03/14 11:43:29;;;;;;;12.10;2.00;;;7.20;99.90;;;;;;5070344;28;20024;-64
2023/03/14 11:46:01;;;;;;;10.93;1.90;;;7.20;99.90;;;;;;5068493;28;20051;-64
2023/03/14 11:48:39;;;;;;;12.90;2.30;;;7.10;99.90;;;;;;5069070;28;20040;-64
2023/03/14 11:51:11;;;;;;;10.98;1.85;;;7.10;99.90;;;;;;5073085;28;20033;-65
2023/03/14 11:53:48;;;;;;;9.02;1.60;;;7.10;99.90;;;;;;5070442;28;20048;-64
2023/03/14 11:56:22;;;;;;;10.40;1.70;;;7.20;99.90;;;;;;5067498;28;20118;-64
2023/03/14 11:58:57;;;;;;;10.85;1.73;;;7.20;99.90;;;;;;5073188;28;20037;-64
2023/03/14 12:01:33;;;;;;;10.25;1.65;;;7.30;99.90;;;;;;5071494;28;20397;-64
2023/03/14 12:04:02;;;;;;;9.70;1.83;;;7.40;99.90;;;;;;5072539;28;20712;-64
2023/03/14 12:06:38;;;;;;;7.57;1.88;;;7.40;99.90;;;;;;5069374;28;20082;-64
2023/03/14 12:09:05;;;;;;;11.30;1.77;;;7.40;99.90;;;;;;5063133;28;20413;-64
2023/03/14 12:11:33;;;;;;;14.30;2.22;;;7.40;99.90;;;;;;5068983;28;20036;-64
2023/03/14 12:14:00;;;;;;;11.70;2.13;;;7.30;99.90;;;;;;5072421;28;20048;-63
2023/03/14 12:16:31;;;;;;;5.30;1.45;;;7.20;99.90;;;;;;5074282;28;20143;-63
2023/03/14 12:18:57;;;;;;;9.48;1.63;;;7.30;99.90;;;;;;5071647;28;20124;-63
2023/03/14 12:21:51;;;;;;;8.45;2.03;;;7.30;99.90;;;;;;5071818;28;20126;-64
2023/03/14 12:24:19;;;;;;;11.25;1.73;;;7.50;99.90;;;;;;5075701;28;20079;-63
2023/03/14 12:26:57;;;;;;;9.98;1.27;;;7.60;99.90;;;;;;5071102;28;20048;-63
2023/03/14 12:29:23;;;;;;;9.75;1.90;;;7.70;99.90;;;;;;5066847;28;20036;-63
2023/03/14 12:32:22;;;;;;;8.48;1.50;;;7.70;99.90;;;;;;5071422;28;20068;-64
2023/03/14 12:34:47;;;;;;;9.02;1.30;;;7.70;99.90;;;;;;5070966;28;20089;-64
2023/03/14 12:37:44;;;;;;;4.25;1.13;;;7.80;99.90;;;;;;5064608;28;20398;-64
2023/03/14 12:40:18;;;;;;;7.15;1.05;;;7.90;96.40;;;;;;5067058;28;20037;-64
2023/03/14 12:43:00;;;;;;;10.40;1.50;;;7.90;94.90;;;;;;5071786;28;20056;-64
2023/03/14 12:45:32;;;;;;;;;;;7.80;93.30;;;;;;5069922;28;20040;-64
2023/03/14 12:48:21;;;;;;;2.83;1.05;;;7.60;91.20;;;;;;5066173;28;20373;-64
2023/03/14 12:51:13;;;;;;;3.45;1.10;;;7.60;91.50;;;;;;5061314;28;20517;-64
2023/03/14 12:54:17;;;;;;;5.85;1.30;;;7.60;89.30;;;;;;5073158;28;20047;-64
2023/03/14 12:57:11;;;;;;;7.20;1.30;;;7.60;89.90;;;;;;5067096;28;20091;-64
2023/03/14 12:59:45;;;;;;;7.15;1.42;;;7.80;91.70;;;;;;5059969;28;20064;-65
2023/03/14 13:02:22;;;;;;;6.47;1.35;;;7.90;92.90;;;;;;5066255;28;20045;-65